sensor_id;sensor_type;location;lat;lon;timestamp;temperature;humidity
43049;DHT22;28673;44.412;11.918;2024-01-06T00:01:41;12.50;99.90
43049;DHT22;28673;44.412;11.918;2024-01-06T00:04:07;12.40;99.90
43049;DHT22;28673;44.412;11.918;2024-01-06T00:06:33;12.40;99.90
43049;DHT22;28673;44.412;11.918;2024-01-06T00:08:59;12.30;99.90
43049;DHT22;28673;44.412;11.918;2024-01-06T00:11:24;12.20;99.90
43049;DHT22;28673;44.412;11.918;2024-01-06T00:13:50;12.20;99.90
43049;DHT22;28673;44.412;11.918;2024-01-06T00:16:17;12.10;99.90
43049;DHT22;28673;44.412;11.918;2024-01-06T00:18:44;12.10;99.90
43049;DHT22;28673;44.412;11.918;2024-01-06T00:21:10;12.00;99.90
43049;DHT22;28673;44.412;11.918;2024-01-06T00:23:36;12.00;99.90
43049;DHT22;28673;44.412;11.918;2024-01-06T00:26:03;11.90;99.90
43049;DHT22;28673;44.412;11.918;2024-01-06T00:28:29;11.90;99.90
43049;DHT22;28673;44.412;11.918;2024-01-06T00:30:55;11.80;99.90
43049;DHT22;28673;44.412;11.918;2024-01-06T00:33:21;11.70;99.90
43049;DHT22;28673;44.412;11.918;2024-01-06T00:35:47;11.60;99.90
43049;DHT22;28673;44.412;11.918;2024-01-06T00:38:13;11.50;99.90
43049;DHT22;28673;44.412;11.918;2024-01-06T00:40:38;11.30;99.90
43049;DHT22;28673;44.412;11.918;2024-01-06T00:43:04;11.20;99.90
43049;DHT22;28673;44.412;11.918;2024-01-06T00:45:30;11.10;99.90
43049;DHT22;28673;44.412;11.918;2024-01-06T00:47:57;11.10;99.90
43049;DHT22;28673;44.412;11.918;2024-01-06T00:50:23;11.00;99.90
43049;DHT22;28673;44.412;11.918;2024-01-06T00:52:49;10.90;99.90
43049;DHT22;28673;44.412;11.918;2024-01-06T00:55:21;10.90;99.90
43049;DHT22;28673;44.412;11.918;2024-01-06T00:57:48;10.80;99.90
43049;DHT22;28673;44.412;11.918;2024-01-06T01:00:14;10.70;99.90
43049;DHT22;28673;44.412;11.918;2024-01-06T01:02:40;10.60;99.90
43049;DHT22;28673;44.412;11.918;2024-01-06T01:05:06;10.50;99.90
43049;DHT22;28673;44.412;11.918;2024-01-06T01:07:35;10.50;99.90
43049;DHT22;28673;44.412;11.918;2024-01-06T01:10:01;10.40;99.90
43049;DHT22;28673;44.412;11.918;2024-01-06T01:12:27;10.30;99.90
43049;DHT22;28673;44.412;11.918;2024-01-06T01:14:53;10.20;99.90
43049;DHT22;28673;44.412;11.918;2024-01-06T01:17:19;10.20;99.90
43049;DHT22;28673;44.412;11.918;2024-01-06T01:19:45;10.20;99.90
43049;DHT22;28673;44.412;11.918;2024-01-06T01:22:12;10.20;99.90
43049;DHT22;28673;44.412;11.918;2024-01-06T01:24:38;10.10;99.90
43049;DHT22;28673;44.412;11.918;2024-01-06T01:27:04;10.10;99.90
43049;DHT22;28673;44.412;11.918;2024-01-06T01:29:29;10.10;99.90
43049;DHT22;28673;44.412;11.918;2024-01-06T01:31:55;10.00;99.90
43049;DHT22;28673;44.412;11.918;2024-01-06T01:34:21;10.00;99.90
43049;DHT22;28673;44.412;11.918;2024-01-06T01:36:47;9.90;99.90
43049;DHT22;28673;44.412;11.918;2024-01-06T01:39:13;9.80;99.90
43049;DHT22;28673;44.412;11.918;2024-01-06T01:41:40;9.80;99.90
43049;DHT22;28673;44.412;11.918;2024-01-06T01:44:06;9.80;99.90
43049;DHT22;28673;44.412;11.918;2024-01-06T01:46:31;9.80;99.90
43049;DHT22;28673;44.412;11.918;2024-01-06T01:49:00;9.70;99.90
43049;DHT22;28673;44.412;11.918;2024-01-06T01:51:28;9.70;99.90
43049;DHT22;28673;44.412;11.918;2024-01-06T01:53:56;9.60;99.90
43049;DHT22;28673;44.412;11.918;2024-01-06T01:56:22;9.60;99.90
43049;DHT22;28673;44.412;11.918;2024-01-06T01:58:48;9.50;99.90
43049;DHT22;28673;44.412;11.918;2024-01-06T02:01:15;9.50;99.90
43049;DHT22;28673;44.412;11.918;2024-01-06T02:03:41;9.50;99.90
43049;DHT22;28673;44.412;11.918;2024-01-06T02:06:11;9.50;99.90
43049;DHT22;28673;44.412;11.918;2024-01-06T02:08:37;9.50;99.90
43049;DHT22;28673;44.412;11.918;2024-01-06T02:11:03;9.40;99.90
43049;DHT22;28673;44.412;11.918;2024-01-06T02:13:33;9.40;99.90
43049;DHT22;28673;44.412;11.918;2024-01-06T02:16:01;9.40;99.90
43049;DHT22;28673;44.412;11.918;2024-01-06T02:18:27;9.30;99.90
43049;DHT22;28673;44.412;11.918;2024-01-06T02:20:57;9.30;99.90
43049;DHT22;28673;44.412;11.918;2024-01-06T02:23:23;9.20;99.90
43049;DHT22;28673;44.412;11.918;2024-01-06T02:25:49;9.20;99.90
43049;DHT22;28673;44.412;11.918;2024-01-06T02:28:15;9.20;99.90
43049;DHT22;28673;44.412;11.918;2024-01-06T02:30:41;9.20;99.90
43049;DHT22;28673;44.412;11.918;2024-01-06T02:33:06;9.20;99.90
43049;DHT22;28673;44.412;11.918;2024-01-06T02:35:32;9.10;99.90
43049;DHT22;28673;44.412;11.918;2024-01-06T02:37:58;9.10;99.90
43049;DHT22;28673;44.412;11.918;2024-01-06T02:40:24;9.10;99.90
43049;DHT22;28673;44.412;11.918;2024-01-06T02:42:49;9.00;99.90
43049;DHT22;28673;44.412;11.918;2024-01-06T02:45:15;9.00;99.90
43049;DHT22;28673;44.412;11.918;2024-01-06T02:47:41;9.00;99.90
43049;DHT22;28673;44.412;11.918;2024-01-06T02:50:07;9.00;99.90
43049;DHT22;28673;44.412;11.918;2024-01-06T02:52:33;9.00;99.90
43049;DHT22;28673;44.412;11.918;2024-01-06T02:54:59;8.90;99.90
43049;DHT22;28673;44.412;11.918;2024-01-06T02:57:27;8.90;99.90
43049;DHT22;28673;44.412;11.918;2024-01-06T02:59:53;8.90;99.90
43049;DHT22;28673;44.412;11.918;2024-01-06T03:02:18;8.90;99.90
43049;DHT22;28673;44.412;11.918;2024-01-06T03:04:44;8.90;99.90
43049;DHT22;28673;44.412;11.918;2024-01-06T03:07:10;8.90;99.90
43049;DHT22;28673;44.412;11.918;2024-01-06T03:09:36;8.90;99.90
43049;DHT22;28673;44.412;11.918;2024-01-06T03:12:02;8.90;99.90
43049;DHT22;28673;44.412;11.918;2024-01-06T03:14:28;8.90;99.90
43049;DHT22;28673;44.412;11.918;2024-01-06T03:16:53;8.90;99.90
43049;DHT22;28673;44.412;11.918;2024-01-06T03:19:19;8.90;99.90
43049;DHT22;28673;44.412;11.918;2024-01-06T03:21:45;8.90;99.90
43049;DHT22;28673;44.412;11.918;2024-01-06T03:24:11;8.80;99.90
43049;DHT22;28673;44.412;11.918;2024-01-06T03:26:37;8.90;99.90
43049;DHT22;28673;44.412;11.918;2024-01-06T03:29:02;8.90;99.90
43049;DHT22;28673;44.412;11.918;2024-01-06T03:31:29;8.90;99.90
43049;DHT22;28673;44.412;11.918;2024-01-06T03:33:55;8.80;99.90
43049;DHT22;28673;44.412;11.918;2024-01-06T03:36:21;8.80;99.90
43049;DHT22;28673;44.412;11.918;2024-01-06T03:38:47;8.80;99.90
43049;DHT22;28673;44.412;11.918;2024-01-06T03:41:13;8.80;99.90
43049;DHT22;28673;44.412;11.918;2024-01-06T03:43:39;8.80;99.90
43049;DHT22;28673;44.412;11.918;2024-01-06T03:46:05;8.80;99.90
43049;DHT22;28673;44.412;11.918;2024-01-06T03:48:31;8.80;99.90
43049;DHT22;28673;44.412;11.918;2024-01-06T03:51:02;8.80;99.90
43049;DHT22;28673;44.412;11.918;2024-01-06T03:53:28;8.70;99.90
43049;DHT22;28673;44.412;11.918;2024-01-06T03:55:54;8.70;99.90
43049;DHT22;28673;44.412;11.918;2024-01-06T03:58:20;8.70;99.90
43049;DHT22;28673;44.412;11.918;2024-01-06T04:00:46;8.70;99.90
43049;DHT22;28673;44.412;11.918;2024-01-06T04:03:12;8.70;99.90
43049;DHT22;28673;44.412;11.918;2024-01-06T04:05:37;8.70;99.90
43049;DHT22;28673;44.412;11.918;2024-01-06T04:08:03;8.70;99.90
43049;DHT22;28673;44.412;11.918;2024-01-06T04:10:29;8.60;99.90
43049;DHT22;28673;44.412;11.918;2024-01-06T04:12:55;8.60;99.90
43049;DHT22;28673;44.412;11.918;2024-01-06T04:15:21;8.60;99.90
43049;DHT22;28673;44.412;11.918;2024-01-06T04:17:49;8.60;99.90
43049;DHT22;28673;44.412;11.918;2024-01-06T04:20:15;8.60;99.90
43049;DHT22;28673;44.412;11.918;2024-01-06T04:22:40;8.60;99.90
43049;DHT22;28673;44.412;11.918;2024-01-06T04:25:06;8.60;99.90
43049;DHT22;28673;44.412;11.918;2024-01-06T04:27:32;8.60;99.90
43049;DHT22;28673;44.412;11.918;2024-01-06T04:29:59;8.60;99.90
43049;DHT22;28673;44.412;11.918;2024-01-06T04:32:25;8.60;99.90
43049;DHT22;28673;44.412;11.918;2024-01-06T04:34:51;8.60;99.90
43049;DHT22;28673;44.412;11.918;2024-01-06T04:37:17;8.60;99.90
43049;DHT22;28673;44.412;11.918;2024-01-06T04:39:42;8.60;99.90
43049;DHT22;28673;44.412;11.918;2024-01-06T04:42:11;8.60;99.90
43049;DHT22;28673;44.412;11.918;2024-01-06T04:44:37;8.60;99.90
43049;DHT22;28673;44.412;11.918;2024-01-06T04:47:03;8.60;99.90
43049;DHT22;28673;44.412;11.918;2024-01-06T04:49:31;8.60;99.90
43049;DHT22;28673;44.412;11.918;2024-01-06T04:51:57;8.60;99.90
43049;DHT22;28673;44.412;11.918;2024-01-06T04:54:23;8.60;99.90
43049;DHT22;28673;44.412;11.918;2024-01-06T04:56:49;8.60;99.90
43049;DHT22;28673;44.412;11.918;2024-01-06T04:59:14;8.50;99.90
43049;DHT22;28673;44.412;11.918;2024-01-06T05:01:40;8.50;99.90
43049;DHT22;28673;44.412;11.918;2024-01-06T05:04:06;8.50;99.90
43049;DHT22;28673;44.412;11.918;2024-01-06T05:06:32;8.50;99.90
43049;DHT22;28673;44.412;11.918;2024-01-06T05:08:58;8.50;99.90
43049;DHT22;28673;44.412;11.918;2024-01-06T05:11:23;8.50;99.90
43049;DHT22;28673;44.412;11.918;2024-01-06T05:13:49;8.50;99.90
43049;DHT22;28673;44.412;11.918;2024-01-06T05:16:15;8.50;99.90
43049;DHT22;28673;44.412;11.918;2024-01-06T05:18:41;8.50;99.90
43049;DHT22;28673;44.412;11.918;2024-01-06T05:21:06;8.40;99.90
43049;DHT22;28673;44.412;11.918;2024-01-06T05:23:32;8.40;99.90
43049;DHT22;28673;44.412;11.918;2024-01-06T05:25:58;8.40;99.90
43049;DHT22;28673;44.412;11.918;2024-01-06T05:28:24;8.40;99.90
43049;DHT22;28673;44.412;11.918;2024-01-06T05:30:50;8.40;99.90
43049;DHT22;28673;44.412;11.918;2024-01-06T05:33:16;8.30;99.90
43049;DHT22;28673;44.412;11.918;2024-01-06T05:35:42;8.30;99.90
43049;DHT22;28673;44.412;11.918;2024-01-06T05:38:08;8.30;99.90
43049;DHT22;28673;44.412;11.918;2024-01-06T05:40:33;8.30;99.90
43049;DHT22;28673;44.412;11.918;2024-01-06T05:42:59;8.20;99.90
43049;DHT22;28673;44.412;11.918;2024-01-06T05:45:25;8.30;99.90
43049;DHT22;28673;44.412;11.918;2024-01-06T05:47:54;8.30;99.90
43049;DHT22;28673;44.412;11.918;2024-01-06T05:50:20;8.20;99.90
43049;DHT22;28673;44.412;11.918;2024-01-06T05:52:45;8.20;99.90
43049;DHT22;28673;44.412;11.918;2024-01-06T05:55:13;8.20;99.90
43049;DHT22;28673;44.412;11.918;2024-01-06T05:57:39;8.20;99.90
43049;DHT22;28673;44.412;11.918;2024-01-06T06:00:11;8.20;99.90
43049;DHT22;28673;44.412;11.918;2024-01-06T06:02:39;8.10;99.90
43049;DHT22;28673;44.412;11.918;2024-01-06T06:05:05;8.10;99.90
43049;DHT22;28673;44.412;11.918;2024-01-06T06:07:31;8.10;99.90
43049;DHT22;28673;44.412;11.918;2024-01-06T06:09:57;8.10;99.90
43049;DHT22;28673;44.412;11.918;2024-01-06T06:12:22;8.10;99.90
43049;DHT22;28673;44.412;11.918;2024-01-06T06:14:48;8.10;99.90
43049;DHT22;28673;44.412;11.918;2024-01-06T06:17:17;8.10;99.90
43049;DHT22;28673;44.412;11.918;2024-01-06T06:19:43;8.10;99.90
43049;DHT22;28673;44.412;11.918;2024-01-06T06:22:09;8.10;99.90
43049;DHT22;28673;44.412;11.918;2024-01-06T06:24:34;8.10;99.90
43049;DHT22;28673;44.412;11.918;2024-01-06T06:27:00;8.10;99.90
43049;DHT22;28673;44.412;11.918;2024-01-06T06:29:26;8.10;99.90
43049;DHT22;28673;44.412;11.918;2024-01-06T06:31:52;8.10;99.90
43049;DHT22;28673;44.412;11.918;2024-01-06T06:34:17;8.10;99.90
43049;DHT22;28673;44.412;11.918;2024-01-06T06:36:44;8.10;99.90
43049;DHT22;28673;44.412;11.918;2024-01-06T06:39:11;8.10;99.90
43049;DHT22;28673;44.412;11.918;2024-01-06T06:41:37;8.10;99.90
43049;DHT22;28673;44.412;11.918;2024-01-06T06:44:03;8.10;99.90
43049;DHT22;28673;44.412;11.918;2024-01-06T06:46:30;8.10;99.90
43049;DHT22;28673;44.412;11.918;2024-01-06T06:48:55;8.00;99.90
43049;DHT22;28673;44.412;11.918;2024-01-06T06:51:21;8.10;99.90
43049;DHT22;28673;44.412;11.918;2024-01-06T06:53:50;8.10;99.90
43049;DHT22;28673;44.412;11.918;2024-01-06T06:56:16;8.10;99.90
43049;DHT22;28673;44.412;11.918;2024-01-06T06:58:43;8.10;99.90
43049;DHT22;28673;44.412;11.918;2024-01-06T07:01:08;8.10;99.90
43049;DHT22;28673;44.412;11.918;2024-01-06T07:03:34;8.10;99.90
43049;DHT22;28673;44.412;11.918;2024-01-06T07:06:00;8.10;99.90
43049;DHT22;28673;44.412;11.918;2024-01-06T07:08:26;8.00;99.90
43049;DHT22;28673;44.412;11.918;2024-01-06T07:10:51;8.10;99.90
43049;DHT22;28673;44.412;11.918;2024-01-06T07:13:17;8.10;99.90
43049;DHT22;28673;44.412;11.918;2024-01-06T07:15:43;8.10;99.90
43049;DHT22;28673;44.412;11.918;2024-01-06T07:18:10;8.10;99.90
43049;DHT22;28673;44.412;11.918;2024-01-06T07:20:36;8.10;99.90
43049;DHT22;28673;44.412;11.918;2024-01-06T07:23:02;8.10;99.90
43049;DHT22;28673;44.412;11.918;2024-01-06T07:25:28;8.10;99.90
43049;DHT22;28673;44.412;11.918;2024-01-06T07:27:56;8.10;99.90
43049;DHT22;28673;44.412;11.918;2024-01-06T07:30:21;8.10;99.90
43049;DHT22;28673;44.412;11.918;2024-01-06T07:32:47;8.10;99.90
43049;DHT22;28673;44.412;11.918;2024-01-06T07:35:15;8.10;99.90
43049;DHT22;28673;44.412;11.918;2024-01-06T07:37:41;8.00;99.90
43049;DHT22;28673;44.412;11.918;2024-01-06T07:40:08;8.10;99.90
43049;DHT22;28673;44.412;11.918;2024-01-06T07:42:33;8.10;99.90
43049;DHT22;28673;44.412;11.918;2024-01-06T07:44:59;8.10;99.90
43049;DHT22;28673;44.412;11.918;2024-01-06T07:47:25;8.10;99.90
43049;DHT22;28673;44.412;11.918;2024-01-06T07:49:51;8.10;99.90
43049;DHT22;28673;44.412;11.918;2024-01-06T07:52:18;8.10;99.90
43049;DHT22;28673;44.412;11.918;2024-01-06T07:54:44;8.10;99.90
43049;DHT22;28673;44.412;11.918;2024-01-06T07:57:10;8.10;99.90
43049;DHT22;28673;44.412;11.918;2024-01-06T07:59:36;8.10;99.90
43049;DHT22;28673;44.412;11.918;2024-01-06T08:02:02;8.10;99.90
43049;DHT22;28673;44.412;11.918;2024-01-06T08:04:28;8.10;99.90
43049;DHT22;28673;44.412;11.918;2024-01-06T08:06:54;8.10;99.90
43049;DHT22;28673;44.412;11.918;2024-01-06T08:09:20;8.20;99.90
43049;DHT22;28673;44.412;11.918;2024-01-06T08:11:45;8.10;99.90
43049;DHT22;28673;44.412;11.918;2024-01-06T08:14:13;8.10;99.90
43049;DHT22;28673;44.412;11.918;2024-01-06T08:16:39;8.10;99.90
43049;DHT22;28673;44.412;11.918;2024-01-06T08:19:05;8.10;99.90
43049;DHT22;28673;44.412;11.918;2024-01-06T08:21:31;8.20;99.90
43049;DHT22;28673;44.412;11.918;2024-01-06T08:23:57;8.20;99.90
43049;DHT22;28673;44.412;11.918;2024-01-06T08:26:22;8.20;99.90
43049;DHT22;28673;44.412;11.918;2024-01-06T08:28:48;8.30;99.90
43049;DHT22;28673;44.412;11.918;2024-01-06T08:31:14;8.30;99.90
43049;DHT22;28673;44.412;11.918;2024-01-06T08:33:40;8.30;99.90
43049;DHT22;28673;44.412;11.918;2024-01-06T08:36:06;8.30;99.90
43049;DHT22;28673;44.412;11.918;2024-01-06T08:38:32;8.30;99.90
43049;DHT22;28673;44.412;11.918;2024-01-06T08:40:58;8.30;99.90
43049;DHT22;28673;44.412;11.918;2024-01-06T08:43:24;8.30;99.90
43049;DHT22;28673;44.412;11.918;2024-01-06T08:45:50;8.30;99.90
43049;DHT22;28673;44.412;11.918;2024-01-06T08:48:16;8.30;99.90
43049;DHT22;28673;44.412;11.918;2024-01-06T08:50:44;8.30;99.90
43049;DHT22;28673;44.412;11.918;2024-01-06T08:53:11;8.40;99.90
43049;DHT22;28673;44.412;11.918;2024-01-06T08:55:37;8.40;99.90
43049;DHT22;28673;44.412;11.918;2024-01-06T08:58:03;8.40;99.90
43049;DHT22;28673;44.412;11.918;2024-01-06T09:00:28;8.40;99.90
43049;DHT22;28673;44.412;11.918;2024-01-06T09:02:55;8.40;99.90
43049;DHT22;28673;44.412;11.918;2024-01-06T09:05:20;8.40;99.90
43049;DHT22;28673;44.412;11.918;2024-01-06T09:07:46;8.40;99.90
43049;DHT22;28673;44.412;11.918;2024-01-06T09:10:17;8.30;99.90
43049;DHT22;28673;44.412;11.918;2024-01-06T09:12:43;8.30;99.90
43049;DHT22;28673;44.412;11.918;2024-01-06T09:15:09;8.30;99.90
43049;DHT22;28673;44.412;11.918;2024-01-06T09:17:34;8.40;99.90
43049;DHT22;28673;44.412;11.918;2024-01-06T09:20:01;8.40;99.90
43049;DHT22;28673;44.412;11.918;2024-01-06T09:22:27;8.40;99.90
43049;DHT22;28673;44.412;11.918;2024-01-06T09:24:54;8.40;99.90
43049;DHT22;28673;44.412;11.918;2024-01-06T09:27:20;8.50;99.90
43049;DHT22;28673;44.412;11.918;2024-01-06T09:29:46;8.40;99.90
43049;DHT22;28673;44.412;11.918;2024-01-06T09:32:13;8.50;99.90
43049;DHT22;28673;44.412;11.918;2024-01-06T09:34:39;8.50;99.90
43049;DHT22;28673;44.412;11.918;2024-01-06T09:37:04;8.50;99.90
43049;DHT22;28673;44.412;11.918;2024-01-06T09:39:30;8.60;99.90
43049;DHT22;28673;44.412;11.918;2024-01-06T09:41:57;8.50;99.90
43049;DHT22;28673;44.412;11.918;2024-01-06T09:44:24;8.60;99.90
43049;DHT22;28673;44.412;11.918;2024-01-06T09:46:50;8.60;99.90
43049;DHT22;28673;44.412;11.918;2024-01-06T09:49:23;8.60;99.90
43049;DHT22;28673;44.412;11.918;2024-01-06T09:51:49;8.60;99.90
43049;DHT22;28673;44.412;11.918;2024-01-06T09:54:22;8.60;99.90
43049;DHT22;28673;44.412;11.918;2024-01-06T09:56:49;8.60;99.90
43049;DHT22;28673;44.412;11.918;2024-01-06T09:59:15;8.60;99.90
43049;DHT22;28673;44.412;11.918;2024-01-06T10:01:41;8.60;99.90
43049;DHT22;28673;44.412;11.918;2024-01-06T10:04:07;8.60;99.90
43049;DHT22;28673;44.412;11.918;2024-01-06T10:06:33;8.70;99.90
43049;DHT22;28673;44.412;11.918;2024-01-06T10:08:59;8.70;99.90
43049;DHT22;28673;44.412;11.918;2024-01-06T10:11:25;8.60;99.90
43049;DHT22;28673;44.412;11.918;2024-01-06T10:13:52;8.60;99.90
43049;DHT22;28673;44.412;11.918;2024-01-06T10:16:19;8.60;99.90
43049;DHT22;28673;44.412;11.918;2024-01-06T10:18:46;8.60;99.90
43049;DHT22;28673;44.412;11.918;2024-01-06T10:21:12;8.60;99.90
43049;DHT22;28673;44.412;11.918;2024-01-06T10:23:39;8.60;99.90
43049;DHT22;28673;44.412;11.918;2024-01-06T10:26:05;8.60;99.90
43049;DHT22;28673;44.412;11.918;2024-01-06T10:28:31;8.60;99.90
43049;DHT22;28673;44.412;11.918;2024-01-06T10:30:58;8.60;99.90
43049;DHT22;28673;44.412;11.918;2024-01-06T10:33:25;8.60;99.90
43049;DHT22;28673;44.412;11.918;2024-01-06T10:35:52;8.60;99.90
43049;DHT22;28673;44.412;11.918;2024-01-06T10:38:20;8.60;99.90
43049;DHT22;28673;44.412;11.918;2024-01-06T10:41:02;8.60;99.90
43049;DHT22;28673;44.412;11.918;2024-01-06T10:43:33;8.60;99.90
43049;DHT22;28673;44.412;11.918;2024-01-06T10:46:06;8.60;99.90
43049;DHT22;28673;44.412;11.918;2024-01-06T10:48:37;8.60;99.90
43049;DHT22;28673;44.412;11.918;2024-01-06T10:51:10;8.60;99.90
43049;DHT22;28673;44.412;11.918;2024-01-06T10:53:36;8.60;99.90
43049;DHT22;28673;44.412;11.918;2024-01-06T10:56:06;8.60;99.90
43049;DHT22;28673;44.412;11.918;2024-01-06T10:58:45;8.60;99.90
43049;DHT22;28673;44.412;11.918;2024-01-06T11:01:13;8.70;99.90
43049;DHT22;28673;44.412;11.918;2024-01-06T11:03:39;8.70;99.90
43049;DHT22;28673;44.412;11.918;2024-01-06T11:06:09;8.70;99.90
43049;DHT22;28673;44.412;11.918;2024-01-06T11:08:46;8.70;99.90
43049;DHT22;28673;44.412;11.918;2024-01-06T11:11:19;8.70;99.90
43049;DHT22;28673;44.412;11.918;2024-01-06T11:13:46;8.70;99.90
43049;DHT22;28673;44.412;11.918;2024-01-06T11:16:34;8.70;99.90
43049;DHT22;28673;44.412;11.918;2024-01-06T11:19:00;8.70;99.90
43049;DHT22;28673;44.412;11.918;2024-01-06T11:21:26;8.70;99.90
43049;DHT22;28673;44.412;11.918;2024-01-06T11:24:15;8.70;99.90
43049;DHT22;28673;44.412;11.918;2024-01-06T11:26:50;8.70;99.90
43049;DHT22;28673;44.412;11.918;2024-01-06T11:29:16;8.70;99.90
43049;DHT22;28673;44.412;11.918;2024-01-06T11:31:42;8.70;99.90
43049;DHT22;28673;44.412;11.918;2024-01-06T11:34:18;8.70;99.90
43049;DHT22;28673;44.412;11.918;2024-01-06T11:36:50;8.70;99.90
43049;DHT22;28673;44.412;11.918;2024-01-06T11:39:34;8.70;99.90
43049;DHT22;28673;44.412;11.918;2024-01-06T11:42:01;8.70;99.90
43049;DHT22;28673;44.412;11.918;2024-01-06T11:44:30;8.60;99.90
43049;DHT22;28673;44.412;11.918;2024-01-06T11:46:59;8.70;99.90
43049;DHT22;28673;44.412;11.918;2024-01-06T11:49:28;8.70;99.90
43049;DHT22;28673;44.412;11.918;2024-01-06T11:51:58;8.70;99.90
43049;DHT22;28673;44.412;11.918;2024-01-06T11:54:24;8.70;99.90
43049;DHT22;28673;44.412;11.918;2024-01-06T11:56:50;8.70;99.90
43049;DHT22;28673;44.412;11.918;2024-01-06T11:59:18;8.70;99.90
43049;DHT22;28673;44.412;11.918;2024-01-06T12:01:45;8.70;99.90
43049;DHT22;28673;44.412;11.918;2024-01-06T12:04:14;8.60;99.90
43049;DHT22;28673;44.412;11.918;2024-01-06T12:06:41;8.60;99.90
43049;DHT22;28673;44.412;11.918;2024-01-06T12:09:10;8.60;99.90
43049;DHT22;28673;44.412;11.918;2024-01-06T12:11:36;8.50;99.90
43049;DHT22;28673;44.412;11.918;2024-01-06T12:14:05;8.60;99.90
43049;DHT22;28673;44.412;11.918;2024-01-06T12:16:32;8.50;99.90
43049;DHT22;28673;44.412;11.918;2024-01-06T12:18:58;8.60;99.90
43049;DHT22;28673;44.412;11.918;2024-01-06T12:21:29;8.60;99.90
43049;DHT22;28673;44.412;11.918;2024-01-06T12:24:16;8.60;99.90
43049;DHT22;28673;44.412;11.918;2024-01-06T12:26:46;8.60;99.90
43049;DHT22;28673;44.412;11.918;2024-01-06T12:29:13;8.60;99.90
43049;DHT22;28673;44.412;11.918;2024-01-06T12:31:39;8.60;99.90
43049;DHT22;28673;44.412;11.918;2024-01-06T12:34:08;8.60;99.90
43049;DHT22;28673;44.412;11.918;2024-01-06T12:36:37;8.60;99.90
43049;DHT22;28673;44.412;11.918;2024-01-06T12:39:04;8.70;99.90
43049;DHT22;28673;44.412;11.918;2024-01-06T12:41:30;8.70;99.90
43049;DHT22;28673;44.412;11.918;2024-01-06T12:43:59;8.80;99.90
43049;DHT22;28673;44.412;11.918;2024-01-06T12:46:26;8.80;99.90
43049;DHT22;28673;44.412;11.918;2024-01-06T12:48:52;8.80;99.90
43049;DHT22;28673;44.412;11.918;2024-01-06T12:51:18;8.80;99.90
43049;DHT22;28673;44.412;11.918;2024-01-06T12:53:44;8.90;99.90
43049;DHT22;28673;44.412;11.918;2024-01-06T12:56:10;8.90;99.90
43049;DHT22;28673;44.412;11.918;2024-01-06T12:58:36;8.90;99.90
43049;DHT22;28673;44.412;11.918;2024-01-06T13:01:01;8.90;99.90
43049;DHT22;28673;44.412;11.918;2024-01-06T13:03:28;9.00;99.90
43049;DHT22;28673;44.412;11.918;2024-01-06T13:05:54;8.90;99.90
43049;DHT22;28673;44.412;11.918;2024-01-06T13:08:20;9.00;99.90
43049;DHT22;28673;44.412;11.918;2024-01-06T13:10:46;9.00;99.90
43049;DHT22;28673;44.412;11.918;2024-01-06T13:13:12;9.00;99.90
43049;DHT22;28673;44.412;11.918;2024-01-06T13:15:38;9.00;99.90
43049;DHT22;28673;44.412;11.918;2024-01-06T13:18:04;9.10;99.90
43049;DHT22;28673;44.412;11.918;2024-01-06T13:20:30;9.00;99.90
43049;DHT22;28673;44.412;11.918;2024-01-06T13:22:56;9.10;99.90
43049;DHT22;28673;44.412;11.918;2024-01-06T13:25:22;9.00;99.90
43049;DHT22;28673;44.412;11.918;2024-01-06T13:27:47;9.00;99.90
43049;DHT22;28673;44.412;11.918;2024-01-06T13:30:15;9.10;99.90
43049;DHT22;28673;44.412;11.918;2024-01-06T13:32:41;9.10;99.90
43049;DHT22;28673;44.412;11.918;2024-01-06T13:35:07;9.00;99.90
43049;DHT22;28673;44.412;11.918;2024-01-06T13:37:36;9.00;99.90
43049;DHT22;28673;44.412;11.918;2024-01-06T13:40:02;9.00;99.90
43049;DHT22;28673;44.412;11.918;2024-01-06T13:42:28;9.10;99.90
43049;DHT22;28673;44.412;11.918;2024-01-06T13:44:54;9.00;99.90
43049;DHT22;28673;44.412;11.918;2024-01-06T13:47:20;9.00;99.90
43049;DHT22;28673;44.412;11.918;2024-01-06T13:49:46;9.00;99.90
43049;DHT22;28673;44.412;11.918;2024-01-06T13:52:12;9.00;99.90
43049;DHT22;28673;44.412;11.918;2024-01-06T13:54:37;9.00;99.90
43049;DHT22;28673;44.412;11.918;2024-01-06T13:57:04;9.00;99.90
43049;DHT22;28673;44.412;11.918;2024-01-06T13:59:29;9.00;99.90
43049;DHT22;28673;44.412;11.918;2024-01-06T14:01:55;9.00;99.90
43049;DHT22;28673;44.412;11.918;2024-01-06T14:04:21;9.00;99.90
43049;DHT22;28673;44.412;11.918;2024-01-06T14:06:49;8.90;99.90
43049;DHT22;28673;44.412;11.918;2024-01-06T14:09:21;8.90;99.90
43049;DHT22;28673;44.412;11.918;2024-01-06T14:11:47;9.00;99.90
43049;DHT22;28673;44.412;11.918;2024-01-06T14:14:13;9.00;99.90
43049;DHT22;28673;44.412;11.918;2024-01-06T14:16:39;9.00;99.90
43049;DHT22;28673;44.412;11.918;2024-01-06T14:19:04;9.00;99.90
43049;DHT22;28673;44.412;11.918;2024-01-06T14:21:32;8.90;99.90
43049;DHT22;28673;44.412;11.918;2024-01-06T14:23:58;9.00;99.90
43049;DHT22;28673;44.412;11.918;2024-01-06T14:26:25;9.00;99.90
43049;DHT22;28673;44.412;11.918;2024-01-06T14:28:51;9.00;99.90
43049;DHT22;28673;44.412;11.918;2024-01-06T14:31:16;8.90;99.90
43049;DHT22;28673;44.412;11.918;2024-01-06T14:33:42;8.90;99.90
43049;DHT22;28673;44.412;11.918;2024-01-06T14:36:08;8.90;99.90
43049;DHT22;28673;44.412;11.918;2024-01-06T14:38:37;8.90;99.90
43049;DHT22;28673;44.412;11.918;2024-01-06T14:41:03;8.90;99.90
43049;DHT22;28673;44.412;11.918;2024-01-06T14:43:29;8.90;99.90
43049;DHT22;28673;44.412;11.918;2024-01-06T14:45:55;8.90;99.90
43049;DHT22;28673;44.412;11.918;2024-01-06T14:48:21;8.80;99.90
43049;DHT22;28673;44.412;11.918;2024-01-06T14:50:47;8.80;99.90
43049;DHT22;28673;44.412;11.918;2024-01-06T14:53:14;8.80;99.90
43049;DHT22;28673;44.412;11.918;2024-01-06T14:55:40;8.80;99.90
43049;DHT22;28673;44.412;11.918;2024-01-06T14:58:06;8.80;99.90
43049;DHT22;28673;44.412;11.918;2024-01-06T15:00:37;8.80;99.90
43049;DHT22;28673;44.412;11.918;2024-01-06T15:03:03;8.80;99.90
43049;DHT22;28673;44.412;11.918;2024-01-06T15:05:28;8.80;99.90
43049;DHT22;28673;44.412;11.918;2024-01-06T15:07:56;8.80;99.90
43049;DHT22;28673;44.412;11.918;2024-01-06T15:10:22;8.80;99.90
43049;DHT22;28673;44.412;11.918;2024-01-06T15:12:47;8.80;99.90
43049;DHT22;28673;44.412;11.918;2024-01-06T15:15:14;8.80;99.90
43049;DHT22;28673;44.412;11.918;2024-01-06T15:17:39;8.80;99.90
43049;DHT22;28673;44.412;11.918;2024-01-06T15:20:06;8.80;99.90
43049;DHT22;28673;44.412;11.918;2024-01-06T15:22:32;8.80;99.90
43049;DHT22;28673;44.412;11.918;2024-01-06T15:24:58;8.80;99.90
43049;DHT22;28673;44.412;11.918;2024-01-06T15:27:26;8.80;99.90